Time;durP1;ratioP1;P1;durP2;ratioP2;P2;SDS_P1;SDS_P2;PMS_P1;PMS_P2;Temp;Humidity;BMP_temperature;BMP_pressure;BME280_temperature;BME280_humidity;BME280_pressure;Samples;Min_cycle;Max_cycle;Signal;HPM_P1;HPM_P2
2023/09/23 00:01:11;;;;;;;;;;;20.70;92.70;;;;;;5074699;28;19904;-55
2023/09/23 00:03:37;;;;;;;;;;;20.70;92.70;;;;;;5074769;28;19904;-52
2023/09/23 00:06:03;;;;;;;;;;;20.70;92.70;;;;;;5074924;28;19958;-52
2023/09/23 00:08:29;;;;;;;;;;;20.70;92.70;;;;;;5074272;28;20007;-53
2023/09/23 00:10:54;;;;;;;;;;;20.60;92.70;;;;;;5072831;28;20003;-55
2023/09/23 00:13:21;;;;;;;;;;;20.70;92.80;;;;;;5074187;28;19954;-53
2023/09/23 00:15:48;;;;;;;;;;;20.70;92.90;;;;;;5074374;28;19904;-54
2023/09/23 00:18:17;;;;;;;;;;;20.70;92.90;;;;;;5074131;28;19987;-53
2023/09/23 00:20:44;;;;;;;;;;;20.60;92.90;;;;;;5055752;28;20258;-53
2023/09/23 00:23:09;;;;;;;;;;;20.60;92.90;;;;;;5074428;28;19960;-54
2023/09/23 00:25:36;;;;;;;;;;;20.60;93.00;;;;;;5074256;28;20204;-56
2023/09/23 00:28:02;;;;;;;;;;;20.60;93.00;;;;;;5073951;28;20338;-54
2023/09/23 00:30:28;;;;;;;;;;;20.60;93.00;;;;;;5073769;28;19920;-55
2023/09/23 00:32:53;;;;;;;;;;;20.60;93.00;;;;;;5073955;28;20282;-55
2023/09/23 00:35:19;;;;;;;;;;;20.60;93.00;;;;;;5074269;28;19905;-53
2023/09/23 00:37:49;;;;;;;;;;;20.60;93.10;;;;;;5074290;28;19904;-54
2023/09/23 00:40:24;;;;;;;;;;;20.60;93.10;;;;;;5073171;28;20046;-52
2023/09/23 00:42:50;;;;;;;;;;;20.60;93.10;;;;;;5074291;28;19905;-52
2023/09/23 00:45:17;;;;;;;;;;;20.60;93.10;;;;;;5073953;28;19908;-54
2023/09/23 00:47:43;;;;;;;;;;;20.60;93.10;;;;;;5073835;28;19985;-55
2023/09/23 00:50:18;;;;;;;;;;;20.60;93.20;;;;;;5074005;28;19983;-54
2023/09/23 00:52:47;;;;;;;;;;;20.60;93.20;;;;;;5074183;28;19909;-53
2023/09/23 00:55:12;;;;;;;;;;;20.50;93.20;;;;;;5056157;28;19908;-53
2023/09/23 00:57:41;;;;;;;;;;;20.50;93.20;;;;;;5074060;28;20259;-52
2023/09/23 01:00:11;;;;;;;;;;;20.50;93.20;;;;;;5072563;28;19912;-56
2023/09/23 01:02:37;;;;;;;;;;;20.60;93.20;;;;;;5073607;28;19954;-53
2023/09/23 01:05:04;;;;;;;;;;;20.50;93.20;;;;;;5073964;28;19904;-54
2023/09/23 01:07:31;;;;;;;;;;;20.50;93.20;;;;;;5073712;28;19904;-56
2023/09/23 01:09:57;;;;;;;;;;;20.50;93.20;;;;;;5055196;28;19920;-56
2023/09/23 01:12:22;;;;;;;;;;;20.50;93.20;;;;;;5072138;28;20355;-52
2023/09/23 01:14:48;;;;;;;;;;;20.60;93.20;;;;;;5073605;28;19943;-54
2023/09/23 01:17:14;;;;;;;;;;;20.60;93.20;;;;;;5073753;28;20331;-54
2023/09/23 01:19:40;;;;;;;;;;;20.50;93.20;;;;;;5073332;28;19908;-52
2023/09/23 01:22:06;;;;;;;;;;;20.50;93.20;;;;;;5055771;28;20358;-56
2023/09/23 01:24:32;;;;;;;;;;;20.50;93.20;;;;;;5055774;28;19905;-52
2023/09/23 01:26:58;;;;;;;;;;;20.50;93.20;;;;;;5073698;28;19910;-55
2023/09/23 01:29:24;;;;;;;;;;;20.50;93.20;;;;;;5072813;28;19912;-54
2023/09/23 01:32:10;;;;;;;;;;;20.50;93.20;;;;;;5072987;28;19904;-51
2023/09/23 01:34:35;;;;;;;;;;;20.50;93.20;;;;;;5072960;28;20297;-55
2023/09/23 01:37:01;;;;;;;;;;;20.50;93.20;;;;;;5055326;28;19911;-53
2023/09/23 01:39:26;;;;;;;;;;;20.50;93.20;;;;;;5073352;28;19965;-55
2023/09/23 01:41:54;;;;;;;;;;;20.50;93.20;;;;;;5072842;28;19935;-53
2023/09/23 01:44:20;;;;;;;;;;;20.50;93.20;;;;;;5073572;28;19927;-54
2023/09/23 01:46:46;;;;;;;;;;;20.50;93.20;;;;;;5073590;28;20411;-52
2023/09/23 01:49:12;;;;;;;;;;;20.50;93.30;;;;;;5072867;28;19956;-52
2023/09/23 01:51:37;;;;;;;;;;;20.50;93.20;;;;;;5072689;28;19951;-55
2023/09/23 01:54:03;;;;;;;;;;;20.50;93.30;;;;;;5073254;28;19953;-53
2023/09/23 01:56:30;;;;;;;;;;;20.50;93.30;;;;;;5074043;28;20313;-51
2023/09/23 01:58:56;;;;;;;;;;;20.50;93.30;;;;;;5075713;28;20248;-52
2023/09/23 02:01:21;;;;;;;;;;;20.50;93.30;;;;;;5076895;28;19912;-53
2023/09/23 02:03:47;;;;;;;;;;;20.50;93.50;;;;;;5058997;28;19999;-53
2023/09/23 02:06:12;;;;;;;;;;;20.50;93.30;;;;;;5076538;28;19908;-52
2023/09/23 02:08:38;;;;;;;;;;;20.50;93.30;;;;;;5075971;28;19905;-53
2023/09/23 02:11:04;;;;;;;;;;;20.50;93.30;;;;;;5076675;28;20263;-52
2023/09/23 02:13:29;;;;;;;;;;;20.50;93.30;;;;;;5076677;28;19905;-55
2023/09/23 02:15:57;;;;;;;;;;;20.50;93.30;;;;;;5076710;28;19950;-54
2023/09/23 02:18:23;;;;;;;;;;;20.50;93.30;;;;;;5076367;28;19904;-54
2023/09/23 02:20:49;;;;;;;;;;;20.50;93.30;;;;;;5076265;28;20262;-53
2023/09/23 02:23:15;;;;;;;;;;;20.50;93.30;;;;;;5076522;28;19904;-52
2023/09/23 02:25:40;;;;;;;;;;;20.50;93.30;;;;;;5076612;28;19912;-56
2023/09/23 02:28:06;;;;;;;;;;;20.50;93.30;;;;;;5076505;28;20008;-54
2023/09/23 02:30:32;;;;;;;;;;;20.50;93.30;;;;;;5040892;28;19923;-55
2023/09/23 02:32:58;;;;;;;;;;;20.40;93.30;;;;;;5076358;28;19904;-55
2023/09/23 02:35:25;;;;;;;;;;;20.50;93.30;;;;;;5058403;28;20015;-50
2023/09/23 02:37:50;;;;;;;;;;;20.40;93.30;;;;;;5076321;28;19904;-53
2023/09/23 02:40:17;;;;;;;;;;;20.50;93.30;;;;;;5075382;28;20477;-55
2023/09/23 02:42:43;;;;;;;;;;;20.50;93.30;;;;;;5076334;28;19904;-55
2023/09/23 02:45:09;;;;;;;;;;;20.40;93.30;;;;;;5076288;28;19904;-52
2023/09/23 02:47:36;;;;;;;;;;;20.50;93.30;;;;;;5076219;28;19911;-53
2023/09/23 02:50:03;;;;;;;;;;;20.40;93.30;;;;;;5075308;28;20343;-50
2023/09/23 02:52:28;;;;;;;;;;;20.40;93.30;;;;;;5076355;28;19916;-53
2023/09/23 02:54:54;;;;;;;;;;;20.50;93.30;;;;;;5075743;28;19904;-56
2023/09/23 02:57:20;;;;;;;;;;;20.40;93.30;;;;;;5075659;28;19927;-52
2023/09/23 02:59:48;;;;;;;;;;;20.40;93.30;;;;;;5074522;28;19958;-52
2023/09/23 03:02:20;;;;;;;;;;;20.40;93.30;;;;;;5075592;28;19947;-54
2023/09/23 03:04:45;;;;;;;;;;;20.50;93.40;;;;;;5075859;28;19912;-55
2023/09/23 03:07:12;;;;;;;;;;;20.40;93.30;;;;;;5075528;28;19909;-54
2023/09/23 03:09:43;;;;;;;;;;;20.40;93.30;;;;;;5075132;28;19971;-52
2023/09/23 03:12:09;;;;;;;;;;;20.40;93.30;;;;;;5075483;28;19969;-51
2023/09/23 03:14:42;;;;;;;;;;;20.40;93.30;;;;;;5075521;28;19909;-51
2023/09/23 03:17:09;;;;;;;;;;;20.40;93.40;;;;;;5075620;28;19904;-55
2023/09/23 03:19:35;;;;;;;;;;;20.40;93.40;;;;;;5074546;28;19944;-55
2023/09/23 03:22:01;;;;;;;;;;;20.40;93.40;;;;;;5075178;28;20339;-51
2023/09/23 03:24:28;;;;;;;;;;;20.40;93.40;;;;;;5057488;28;19911;-52
2023/09/23 03:26:55;;;;;;;;;;;20.40;93.40;;;;;;5075274;28;19904;-55
2023/09/23 03:29:28;;;;;;;;;;;20.40;93.40;;;;;;5074161;28;20271;-55
2023/09/23 03:31:55;;;;;;;;;;;20.40;93.40;;;;;;5075258;28;19931;-55
2023/09/23 03:34:21;;;;;;;;;;;20.40;93.40;;;;;;5075491;28;20247;-55
2023/09/23 03:36:47;;;;;;;;;;;20.40;93.40;;;;;;5057303;28;20376;-55
2023/09/23 03:39:12;;;;;;;;;;;20.40;93.40;;;;;;5075003;28;19955;-55
2023/09/23 03:41:38;;;;;;;;;;;20.40;93.40;;;;;;5074502;28;19948;-51
2023/09/23 03:44:07;;;;;;;;;;;20.40;93.40;;;;;;5075018;28;19904;-54
2023/09/23 03:46:33;;;;;;;;;;;20.40;93.40;;;;;;5074907;28;19905;-55
2023/09/23 03:49:00;;;;;;;;;;;20.40;93.40;;;;;;5056628;28;19916;-54
2023/09/23 03:51:25;;;;;;;;;;;20.30;93.40;;;;;;5056124;28;20340;-54
2023/09/23 03:53:51;;;;;;;;;;;20.40;93.40;;;;;;5074771;28;19913;-54
2023/09/23 03:56:17;;;;;;;;;;;20.40;93.40;;;;;;5074794;28;19991;-54
2023/09/23 03:58:43;;;;;;;;;;;20.40;93.40;;;;;;5074238;28;19962;-54
2023/09/23 04:01:13;;;;;;;;;;;20.30;93.40;;;;;;5056679;28;20255;-51
2023/09/23 04:03:39;;;;;;;;;;;20.40;93.40;;;;;;5074045;28;20411;-54
2023/09/23 04:06:05;;;;;;;;;;;20.30;93.40;;;;;;5074622;28;19911;-55
2023/09/23 04:08:31;;;;;;;;;;;20.40;93.40;;;;;;5073374;28;19908;-55
2023/09/23 04:11:00;;;;;;;;;;;20.30;93.40;;;;;;5073927;28;19917;-55
2023/09/23 04:13:26;;;;;;;;;;;20.30;93.40;;;;;;5074283;28;19905;-53
2023/09/23 04:15:53;;;;;;;;;;;20.30;93.50;;;;;;5074132;28;20256;-54
2023/09/23 04:18:18;;;;;;;;;;;20.30;93.50;;;;;;5073629;28;20007;-55
2023/09/23 04:20:45;;;;;;;;;;;20.30;93.50;;;;;;5074094;28;19951;-50
2023/09/23 04:23:11;;;;;;;;;;;20.30;93.50;;;;;;5074454;28;19904;-55
2023/09/23 04:25:36;;;;;;;;;;;20.30;93.50;;;;;;5074407;28;19910;-53
2023/09/23 04:28:03;;;;;;;;;;;20.30;93.50;;;;;;5074302;28;19927;-56
2023/09/23 04:30:28;;;;;;;;;;;20.30;93.50;;;;;;5073496;28;19917;-54
2023/09/23 04:32:55;;;;;;;;;;;20.30;93.50;;;;;;5074296;28;19958;-51
2023/09/23 04:35:20;;;;;;;;;;;20.30;93.50;;;;;;5074191;28;20008;-51
2023/09/23 04:37:46;;;;;;;;;;;20.30;93.50;;;;;;5073479;28;19943;-56
2023/09/23 04:40:12;;;;;;;;;;;20.30;93.50;;;;;;5074257;28;20294;-54
2023/09/23 04:42:39;;;;;;;;;;;20.30;93.50;;;;;;5074093;28;20250;-53
2023/09/23 04:45:05;;;;;;;;;;;20.30;93.50;;;;;;5074701;28;19987;-55
2023/09/23 04:47:30;;;;;;;;;;;20.30;93.50;;;;;;5074354;28;19904;-54
2023/09/23 04:49:58;;;;;;;;;;;20.30;93.50;;;;;;5073315;28;19946;-52
2023/09/23 04:52:24;;;;;;;;;;;20.30;93.50;;;;;;5073695;28;20366;-55
2023/09/23 04:54:53;;;;;;;;;;;20.30;93.50;;;;;;5073920;28;19905;-54
2023/09/23 04:57:18;;;;;;;;;;;20.30;93.50;;;;;;5073214;28;19908;-54
2023/09/23 04:59:44;;;;;;;;;;;20.30;93.50;;;;;;5073784;28;19905;-54
2023/09/23 05:02:13;;;;;;;;;;;20.30;93.60;;;;;;5073830;28;19927;-50
2023/09/23 05:04:39;;;;;;;;;;;20.20;93.50;;;;;;5073768;28;20297;-54
2023/09/23 05:07:04;;;;;;;;;;;20.20;93.50;;;;;;5073410;28;19958;-53
2023/09/23 05:09:30;;;;;;;;;;;20.20;93.60;;;;;;5072329;28;19962;-53
2023/09/23 05:11:56;;;;;;;;;;;20.30;93.60;;;;;;5073034;28;19912;-52
2023/09/23 05:14:21;;;;;;;;;;;20.30;93.60;;;;;;5073151;28;20342;-53
2023/09/23 05:16:50;;;;;;;;;;;20.30;93.60;;;;;;5080834;28;19921;-53
2023/09/23 05:19:16;;;;;;;;;;;20.30;93.60;;;;;;5083191;28;19939;-52
2023/09/23 05:21:42;;;;;;;;;;;20.20;93.50;;;;;;5072219;28;20366;-50
2023/09/23 05:24:09;;;;;;;;;;;20.30;93.50;;;;;;5075154;28;19985;-55
2023/09/23 05:26:35;;;;;;;;;;;20.30;93.60;;;;;;5081939;28;19904;-51
2023/09/23 05:29:00;;;;;;;;;;;20.30;93.60;;;;;;5084245;28;19939;-53
2023/09/23 05:31:26;;;;;;;;;;;20.20;93.50;;;;;;5094328;28;19950;-55
2023/09/23 05:33:52;;;;;;;;;;;20.30;93.50;;;;;;5082338;28;20007;-53
2023/09/23 05:36:20;;;;;;;;;;;20.20;93.50;;;;;;5086043;28;20402;-54
2023/09/23 05:38:45;;;;;;;;;;;20.20;93.60;;;;;;5093005;28;19913;-54
2023/09/23 05:41:11;;;;;;;;;;;20.20;93.60;;;;;;5097335;28;19915;-54
2023/09/23 05:43:36;;;;;;;;;;;20.20;93.60;;;;;;5087592;28;20506;-55
2023/09/23 05:46:04;;;;;;;;;;;20.20;93.60;;;;;;5093202;28;19912;-54
2023/09/23 05:48:29;;;;;;;;;;;20.20;93.60;;;;;;5080041;28;20059;-53
2023/09/23 05:51:04;;;;;;;;;;;20.20;93.60;;;;;;5076890;28;20357;-54
2023/09/23 05:53:32;;;;;;;;;;;20.20;93.50;;;;;;5093894;28;19910;-54
2023/09/23 05:55:57;;;;;;;;;;;20.20;93.50;;;;;;5096629;28;20275;-56
2023/09/23 05:58:23;;;;;;;;;;;20.20;93.50;;;;;;5083453;28;19927;-54
2023/09/23 06:00:49;;;;;;;;;;;20.20;93.40;;;;;;5083672;28;19913;-54
2023/09/23 06:03:17;;;;;;;;;;;20.20;93.40;;;;;;5078942;28;19912;-56
2023/09/23 06:05:46;;;;;;;;;;;20.20;93.40;;;;;;5076692;28;19963;-54
2023/09/23 06:08:12;;;;;;;;;;;20.10;93.40;;;;;;5076946;28;20000;-54
2023/09/23 06:10:38;;;;;;;;;;;20.20;93.40;;;;;;5076920;28;19923;-56
2023/09/23 06:13:06;;;;;;;;;;;20.20;93.50;;;;;;5075269;28;20359;-56
2023/09/23 06:15:32;;;;;;;;;;;20.10;93.50;;;;;;5076442;28;20379;-55
2023/09/23 06:17:57;;;;;;;;;;;20.20;93.50;;;;;;5076025;28;19909;-51
2023/09/23 06:20:23;;;;;;;;;;;20.20;93.50;;;;;;5076021;28;19916;-55
2023/09/23 06:22:49;;;;;;;;;;;20.20;93.50;;;;;;5076162;28;20343;-55
2023/09/23 06:25:14;;;;;;;;;;;20.20;93.50;;;;;;5074783;28;20011;-55
2023/09/23 06:27:40;;;;;;;;;;;20.10;93.50;;;;;;5074602;28;19912;-54
2023/09/23 06:30:05;;;;;;;;;;;20.10;93.90;;;;;;5092326;28;19916;-55
2023/09/23 06:32:31;;;;;;;;;;;20.10;93.60;;;;;;5077935;28;19921;-53
2023/09/23 06:34:57;;;;;;;;;;;20.10;93.60;;;;;;5074075;28;20256;-55
2023/09/23 06:37:23;;;;;;;;;;;20.10;93.60;;;;;;5075311;28;19960;-55
2023/09/23 06:39:49;;;;;;;;;;;20.10;93.60;;;;;;5075961;28;19908;-53
2023/09/23 06:42:15;;;;;;;;;;;20.10;93.60;;;;;;5057621;28;19908;-55
2023/09/23 06:44:42;;;;;;;;;;;20.10;93.60;;;;;;5075750;28;19909;-51
2023/09/23 06:47:07;;;;;;;;;;;20.10;93.60;;;;;;5074540;28;20281;-55
2023/09/23 06:49:33;;;;;;;;;;;20.10;93.60;;;;;;5072186;28;20020;-54
2023/09/23 06:51:58;;;;;;;;;;;20.10;93.60;;;;;;5074169;28;19926;-54
2023/09/23 06:54:24;;;;;;;;;;;20.10;93.60;;;;;;5075798;28;20417;-52
2023/09/23 06:56:52;;;;;;;;;;;20.10;93.60;;;;;;5075549;28;19956;-52
2023/09/23 06:59:18;;;;;;;;;;;20.10;93.60;;;;;;5057411;28;20238;-53
2023/09/23 07:01:43;;;;;;;;;;;20.10;93.60;;;;;;5075205;28;19912;-55
2023/09/23 07:04:09;;;;;;;;;;;20.10;93.60;;;;;;5075316;28;19963;-53
2023/09/23 07:06:34;;;;;;;;;;;20.10;93.60;;;;;;5057588;28;20497;-55
2023/09/23 07:09:00;;;;;;;;;;;20.10;93.60;;;;;;5075301;28;19916;-54
2023/09/23 07:11:25;;;;;;;;;;;20.10;93.60;;;;;;5074577;28;19970;-54
2023/09/23 07:13:51;;;;;;;;;;;20.10;93.60;;;;;;5074625;28;19912;-55
2023/09/23 07:16:16;;;;;;;;;;;20.10;93.60;;;;;;5076419;28;20414;-56
2023/09/23 07:18:44;;;;;;;;;;;20.10;93.60;;;;;;5075260;28;19912;-54
2023/09/23 07:21:09;;;;;;;;;;;20.10;93.60;;;;;;5075292;28;20440;-54
2023/09/23 07:23:35;;;;;;;;;;;20.10;93.60;;;;;;5074962;28;19913;-56
2023/09/23 07:26:02;;;;;;;;;;;20.10;93.60;;;;;;5074727;28;19909;-53
2023/09/23 07:28:28;;;;;;;;;;;20.10;93.60;;;;;;5075047;28;19915;-54
2023/09/23 07:30:53;;;;;;;;;;;20.00;93.60;;;;;;5073518;28;19921;-55
2023/09/23 07:33:19;;;;;;;;;;;20.10;93.60;;;;;;5074782;28;19909;-54
2023/09/23 07:35:44;;;;;;;;;;;20.00;93.60;;;;;;5055915;28;19920;-53
2023/09/23 07:38:10;;;;;;;;;;;20.10;93.60;;;;;;5078550;28;20003;-54
2023/09/23 07:40:38;;;;;;;;;;;20.00;93.70;;;;;;5093313;28;19916;-49
2023/09/23 07:43:03;;;;;;;;;;;20.00;93.80;;;;;;5089187;28;19912;-53
2023/09/23 07:45:29;;;;;;;;;;;20.00;93.90;;;;;;5089936;28;19912;-52
2023/09/23 07:47:54;;;;;;;;;;;20.10;93.90;;;;;;5057735;28;20331;-51
2023/09/23 07:50:20;;;;;;;;;;;20.00;93.90;;;;;;5072960;28;19923;-55
2023/09/23 07:52:46;;;;;;;;;;;20.00;93.80;;;;;;5084635;28;20108;-56
2023/09/23 07:55:11;;;;;;;;;;;20.00;93.80;;;;;;5091228;28;20140;-58
2023/09/23 07:57:37;;;;;;;;;;;20.00;93.90;;;;;;5088750;28;19916;-53
2023/09/23 08:00:03;;;;;;;;;;;20.00;94.00;;;;;;5089276;28;19913;-52
2023/09/23 08:02:29;;;;;;;;;;;20.00;94.10;;;;;;5068376;28;20003;-57
2023/09/23 08:04:54;;;;;;;;;;;20.00;94.20;;;;;;5092290;28;20024;-52
2023/09/23 08:07:20;;;;;;;;;;;20.00;94.30;;;;;;5090948;28;20362;-59
2023/09/23 08:09:45;;;;;;;;;;;20.00;94.50;;;;;;5086718;28;20402;-53
2023/09/23 08:12:11;;;;;;;;;;;20.00;94.50;;;;;;5088282;28;19943;-56
2023/09/23 08:14:36;;;;;;;;;;;20.00;94.60;;;;;;5094771;28;19919;-56
2023/09/23 08:17:02;;;;;;;;;;;20.00;94.70;;;;;;5085796;28;20390;-55
2023/09/23 08:19:27;;;;;;;;;;;20.00;94.60;;;;;;5081507;28;19912;-55
2023/09/23 08:21:53;;;;;;;;;;;20.10;94.70;;;;;;5093857;28;20374;-52
2023/09/23 08:24:21;;;;;;;;;;;20.00;94.70;;;;;;5091060;28;19965;-54
2023/09/23 08:26:46;;;;;;;;;;;20.00;94.60;;;;;;5090881;28;20427;-55
2023/09/23 08:29:12;;;;;;;;;;;20.00;94.60;;;;;;5083549;28;19928;-55
2023/09/23 08:31:38;;;;;;;;;;;20.00;94.60;;;;;;5087291;28;19919;-51
2023/09/23 08:34:09;;;;;;;;;;;20.00;94.60;;;;;;5093950;28;20278;-55
2023/09/23 08:36:37;;;;;;;;;;;20.00;94.60;;;;;;5093710;28;19908;-54
2023/09/23 08:39:05;;;;;;;;;;;20.00;94.50;;;;;;5078590;28;20355;-55
2023/09/23 08:41:31;;;;;;;;;;;20.00;94.50;;;;;;5075717;28;19908;-55
2023/09/23 08:43:58;;;;;;;;;;;20.00;94.50;;;;;;5093803;28;19908;-52
2023/09/23 08:46:25;;;;;;;;;;;20.00;94.50;;;;;;5093687;28;20416;-54
2023/09/23 08:48:50;;;;;;;;;;;20.00;94.40;;;;;;5066211;28;19920;-52
2023/09/23 08:51:19;;;;;;;;;;;20.00;94.40;;;;;;5083626;28;20293;-53
2023/09/23 08:53:45;;;;;;;;;;;20.00;94.40;;;;;;5091918;28;19963;-53
2023/09/23 08:56:11;;;;;;;;;;;20.00;94.40;;;;;;5091158;28;19944;-55
2023/09/23 08:58:36;;;;;;;;;;;20.00;94.40;;;;;;5064182;28;19955;-50
2023/09/23 09:01:03;;;;;;;;;;;20.00;94.40;;;;;;5074592;28;19913;-51
2023/09/23 09:03:30;;;;;;;;;;;20.00;94.40;;;;;;5093807;28;19908;-55
2023/09/23 09:05:55;;;;;;;;;;;20.00;94.40;;;;;;5057001;28;20255;-53
2023/09/23 09:08:21;;;;;;;;;;;20.00;94.40;;;;;;5073590;28;19916;-53
2023/09/23 09:10:46;;;;;;;;;;;20.00;94.40;;;;;;5077308;28;19961;-55
2023/09/23 09:13:13;;;;;;;;;;;20.00;94.40;;;;;;5079148;28;20536;-51
2023/09/23 09:15:38;;;;;;;;;;;20.00;94.30;;;;;;5092979;28;19935;-54
2023/09/23 09:18:04;;;;;;;;;;;20.00;94.60;;;;;;5095956;28;20346;-53
2023/09/23 09:20:30;;;;;;;;;;;20.00;94.30;;;;;;5078894;28;20422;-53
2023/09/23 09:22:55;;;;;;;;;;;20.00;94.30;;;;;;5077089;28;20183;-54
2023/09/23 09:25:21;;;;;;;;;;;20.00;94.30;;;;;;5059178;28;19956;-55
2023/09/23 09:27:47;;;;;;;;;;;20.00;94.30;;;;;;5083300;28;20006;-54
2023/09/23 09:30:13;;;;;;;;;;;20.00;94.30;;;;;;5066393;28;19920;-55
2023/09/23 09:32:42;;;;;;;;;;;20.00;94.30;;;;;;5075259;28;19970;-52
2023/09/23 09:35:11;;;;;;;;;;;20.00;94.30;;;;;;5074957;28;19917;-54
2023/09/23 09:37:39;;;;;;;;;;;20.00;94.30;;;;;;5086330;28;19947;-57
2023/09/23 09:40:11;;;;;;;;;;;20.00;94.30;;;;;;5090283;28;19921;-56
2023/09/23 09:42:39;;;;;;;;;;;20.00;93.90;;;;;;5077123;28;19921;-56
2023/09/23 09:45:08;;;;;;;;;;;19.90;93.40;;;;;;5078964;28;19912;-56
2023/09/23 09:47:35;;;;;;;;;;;20.00;93.70;;;;;;5094468;28;19912;-52
2023/09/23 09:50:04;;;;;;;;;;;20.00;93.80;;;;;;5097173;28;19927;-55
2023/09/23 09:52:30;;;;;;;;;;;20.00;93.80;;;;;;5094772;28;19918;-54
2023/09/23 09:54:57;;;;;;;;;;;20.00;93.80;;;;;;5080635;28;19982;-55
2023/09/23 09:57:23;;;;;;;;;;;20.00;93.90;;;;;;5078085;28;19916;-56
2023/09/23 09:59:52;;;;;;;;;;;19.90;93.80;;;;;;5076686;28;19916;-55
2023/09/23 10:02:18;;;;;;;;;;;20.00;93.90;;;;;;5076228;28;19909;-57
2023/09/23 10:04:49;;;;;;;;;;;20.00;93.90;;;;;;5075698;28;19913;-54
2023/09/23 10:07:16;;;;;;;;;;;19.90;93.90;;;;;;5076122;28;19913;-56
2023/09/23 10:09:53;;;;;;;;;;;19.90;93.90;;;;;;5076110;28;20463;-54
2023/09/23 10:12:24;;;;;;;;;;;19.90;93.90;;;;;;5076709;28;20109;-56
2023/09/23 10:14:57;;;;;;;;;;;20.00;94.00;;;;;;5075651;28;19913;-54
2023/09/23 10:17:30;;;;;;;;;;;20.00;93.90;;;;;;5075229;28;19909;-54
2023/09/23 10:19:57;;;;;;;;;;;20.00;93.90;;;;;;5076363;28;19908;-57
2023/09/23 10:22:24;;;;;;;;;;;19.90;93.90;;;;;;5076617;28;19931;-56
2023/09/23 10:25:01;;;;;;;;;;;19.90;94.20;;;;;;5075294;28;19955;-56
2023/09/23 10:27:27;;;;;;;;;;;19.90;94.00;;;;;;5058989;28;19923;-57
2023/09/23 10:29:52;;;;;;;;;;;20.00;94.00;;;;;;5075858;28;19921;-57
2023/09/23 10:32:18;;;;;;;;;;;19.90;93.90;;;;;;5075838;28;20364;-57
2023/09/23 10:34:44;;;;;;;;;;;20.00;94.00;;;;;;5075698;28;19995;-55
2023/09/23 10:37:11;;;;;;;;;;;20.00;94.00;;;;;;5074946;28;19943;-56
2023/09/23 10:39:42;;;;;;;;;;;20.00;94.00;;;;;;5075819;28;20437;-54
2023/09/23 10:42:12;;;;;;;;;;;19.90;94.00;;;;;;5075737;28;19934;-57
2023/09/23 10:44:37;;;;;;;;;;;20.00;94.00;;;;;;5074212;28;19912;-55
2023/09/23 10:47:03;;;;;;;;;;;19.90;94.00;;;;;;5075354;28;19965;-56
2023/09/23 10:49:29;;;;;;;;;;;20.00;94.00;;;;;;5075193;28;19928;-56
2023/09/23 10:51:54;;;;;;;;;;;20.00;94.00;;;;;;5076039;28;20009;-53
2023/09/23 10:54:20;;;;;;;;;;;19.90;94.00;;;;;;5075248;28;19959;-55
2023/09/23 10:56:46;;;;;;;;;;;20.00;94.00;;;;;;5074757;28;19919;-55
2023/09/23 10:59:11;;;;;;;;;;;20.00;94.00;;;;;;5075482;28;20356;-56
2023/09/23 11:01:37;;;;;;;;;;;20.00;94.00;;;;;;5075320;28;19909;-56
2023/09/23 11:04:04;;;;;;;;;;;20.00;94.00;;;;;;5075294;28;19909;-56
2023/09/23 11:06:29;;;;;;;;;;;19.90;94.00;;;;;;5074811;28;19912;-56
2023/09/23 11:08:55;;;;;;;;;;;19.90;94.00;;;;;;5075164;28;19908;-53
2023/09/23 11:11:20;;;;;;;;;;;20.00;94.00;;;;;;5075063;28;19909;-56
2023/09/23 11:13:48;;;;;;;;;;;19.90;94.00;;;;;;5074993;28;19912;-57
2023/09/23 11:16:14;;;;;;;;;;;20.00;94.00;;;;;;5074538;28;19918;-56
2023/09/23 11:18:39;;;;;;;;;;;19.90;94.00;;;;;;5075493;28;19995;-57
2023/09/23 11:21:05;;;;;;;;;;;20.00;94.00;;;;;;5075142;28;19958;-57
2023/09/23 11:23:32;;;;;;;;;;;19.90;93.90;;;;;;5074889;28;19908;-56
2023/09/23 11:25:58;;;;;;;;;;;19.90;93.90;;;;;;5074286;28;20268;-55
2023/09/23 11:28:25;;;;;;;;;;;20.00;93.90;;;;;;5072393;28;19994;-54
2023/09/23 11:30:51;;;;;;;;;;;20.00;93.90;;;;;;5074525;28;19917;-56
2023/09/23 11:33:17;;;;;;;;;;;20.00;93.90;;;;;;5074878;28;19965;-54
2023/09/23 11:35:43;;;;;;;;;;;19.90;93.90;;;;;;5074373;28;19999;-56
2023/09/23 11:38:09;;;;;;;;;;;20.00;93.90;;;;;;5074696;28;20416;-56
2023/09/23 11:40:34;;;;;;;;;;;20.00;93.90;;;;;;5074429;28;20343;-56
2023/09/23 11:43:00;;;;;;;;;;;19.90;93.90;;;;;;5072572;28;19920;-56
2023/09/23 11:45:26;;;;;;;;;;;19.90;93.90;;;;;;5056632;28;19909;-57
2023/09/23 11:47:52;;;;;;;;;;;20.00;93.90;;;;;;5074275;28;19908;-57
2023/09/23 11:50:17;;;;;;;;;;;19.90;93.80;;;;;;5074652;28;19920;-54
2023/09/23 11:52:43;;;;;;;;;;;19.90;93.80;;;;;;5072770;28;19912;-57
2023/09/23 11:55:12;;;;;;;;;;;19.90;93.80;;;;;;5074103;28;19916;-56
2023/09/23 11:57:41;;;;;;;;;;;20.00;93.90;;;;;;5056448;28;19908;-57
2023/09/23 12:00:10;;;;;;;;;;;20.00;93.80;;;;;;5073981;28;20015;-56
2023/09/23 12:02:37;;;;;;;;;;;19.90;93.80;;;;;;5073010;28;19913;-55
2023/09/23 12:05:06;;;;;;;;;;;19.90;93.80;;;;;;5085626;28;19912;-54
2023/09/23 12:07:33;;;;;;;;;;;19.90;93.80;;;;;;5089872;28;19919;-56
2023/09/23 12:09:59;;;;;;;;;;;19.90;93.80;;;;;;5089832;28;19920;-57
2023/09/23 12:12:25;;;;;;;;;;;19.90;93.80;;;;;;5078698;28;19927;-53
2023/09/23 12:14:50;;;;;;;;;;;19.90;93.80;;;;;;5071779;28;19912;-55
2023/09/23 12:17:16;;;;;;;;;;;19.90;93.80;;;;;;5074922;28;19916;-55
2023/09/23 12:19:45;;;;;;;;;;;19.90;93.70;;;;;;5073905;28;20003;-53
2023/09/23 12:22:15;;;;;;;;;;;19.90;93.80;;;;;;5072031;28;19991;-56
2023/09/23 12:24:41;;;;;;;;;;;19.90;93.70;;;;;;5092619;28;19908;-54
2023/09/23 12:27:07;;;;;;;;;;;19.90;93.70;;;;;;5094286;28;19919;-56
2023/09/23 12:29:32;;;;;;;;;;;19.90;93.70;;;;;;5075402;28;20278;-53
2023/09/23 12:31:58;;;;;;;;;;;19.90;93.70;;;;;;5079717;28;20003;-56
2023/09/23 12:34:23;;;;;;;;;;;19.90;93.70;;;;;;5073181;28;19941;-54
2023/09/23 12:36:49;;;;;;;;;;;19.90;93.70;;;;;;5073875;28;20263;-57
2023/09/23 12:39:16;;;;;;;;;;;19.90;93.70;;;;;;5073977;28;19909;-55
2023/09/23 12:41:41;;;;;;;;;;;19.90;93.70;;;;;;5083185;28;20355;-53
2023/09/23 12:44:07;;;;;;;;;;;19.90;93.70;;;;;;5065537;28;19958;-56
2023/09/23 12:46:32;;;;;;;;;;;19.90;92.80;;;;;;5086771;28;19961;-55
2023/09/23 12:48:58;;;;;;;;;;;19.90;90.60;;;;;;5093832;28;20228;-56
2023/09/23 12:51:28;;;;;;;;;;;19.90;88.70;;;;;;5079109;28;21789;-53
2023/09/23 12:53:53;;;;;;;;;;;19.90;90.00;;;;;;5085774;28;20030;-56
2023/09/23 12:56:21;;;;;;;;;;;19.90;90.70;;;;;;5093895;28;20291;-56
2023/09/23 12:58:47;;;;;;;;;;;19.90;91.20;;;;;;5093492;28;20290;-54
2023/09/23 13:01:13;;;;;;;;;;;19.90;91.50;;;;;;5090568;28;20014;-56
2023/09/23 13:03:38;;;;;;;;;;;19.80;91.70;;;;;;5082671;28;19981;-55
2023/09/23 13:06:04;;;;;;;;;;;19.90;91.80;;;;;;5093670;28;20289;-56
2023/09/23 13:08:29;;;;;;;;;;;19.80;91.90;;;;;;5093714;28;20002;-57
2023/09/23 13:10:55;;;;;;;;;;;19.80;92.10;;;;;;5080348;28;20381;-56
2023/09/23 13:13:20;;;;;;;;;;;19.90;92.20;;;;;;5086904;28;19969;-54
2023/09/23 13:15:46;;;;;;;;;;;19.80;92.20;;;;;;5058603;28;20271;-57
2023/09/23 13:18:11;;;;;;;;;;;19.80;92.30;;;;;;5083004;28;19920;-55
2023/09/23 13:20:37;;;;;;;;;;;19.80;92.40;;;;;;5093581;28;20322;-55
2023/09/23 13:23:04;;;;;;;;;;;19.80;92.40;;;;;;5089255;28;19912;-52
2023/09/23 13:25:30;;;;;;;;;;;19.80;92.50;;;;;;5076572;28;19913;-53
2023/09/23 13:27:55;;;;;;;;;;;19.80;92.50;;;;;;5070478;28;19912;-57
2023/09/23 13:30:21;;;;;;;;;;;19.90;92.60;;;;;;5083186;28;20019;-55
2023/09/23 13:32:46;;;;;;;;;;;19.80;92.60;;;;;;5078731;28;19917;-54
2023/09/23 13:35:12;;;;;;;;;;;19.80;92.60;;;;;;5071230;28;19989;-54
2023/09/23 13:37:38;;;;;;;;;;;19.80;92.60;;;;;;5075034;28;20011;-54
2023/09/23 13:40:04;;;;;;;;;;;19.80;92.70;;;;;;5093360;28;19915;-56
2023/09/23 13:42:30;;;;;;;;;;;19.80;92.70;;;;;;5093320;28;19908;-53
2023/09/23 13:44:56;;;;;;;;;;;19.80;92.70;;;;;;5093544;28;19954;-56
2023/09/23 13:47:22;;;;;;;;;;;19.80;92.70;;;;;;5075625;28;19920;-55
2023/09/23 13:49:47;;;;;;;;;;;19.80;92.70;;;;;;5087324;28;19927;-55
2023/09/23 13:52:13;;;;;;;;;;;19.80;92.70;;;;;;5093987;28;19908;-56
2023/09/23 13:54:38;;;;;;;;;;;19.80;92.70;;;;;;5097176;28;20007;-55
2023/09/23 13:57:04;;;;;;;;;;;19.80;92.60;;;;;;5084502;28;20057;-56
2023/09/23 13:59:29;;;;;;;;;;;19.80;92.70;;;;;;5088874;28;19912;-51
2023/09/23 14:01:55;;;;;;;;;;;19.80;92.70;;;;;;5092881;28;20347;-56
2023/09/23 14:04:21;;;;;;;;;;;19.80;92.80;;;;;;5088350;28;19912;-55
2023/09/23 14:06:46;;;;;;;;;;;19.80;92.80;;;;;;5069445;28;19916;-57
2023/09/23 14:09:12;;;;;;;;;;;19.80;92.80;;;;;;5059417;28;19928;-54
2023/09/23 14:11:38;;;;;;;;;;;19.80;92.80;;;;;;5073473;28;20042;-54